CMA CGM La Boussole — A8FZ6 — position and weather

sailwx.info

Track history (hours):
 
Tides and Currents Weather Stations Pressure Air Temp Water Temp Dewpoint Dewpoint Depression Visibility Wind Speed Wind Dir Waves Ship Positions

CMA CGM La Boussole

Last reported at 2017-Apr-18 21:39 UTC. Time now 2017-Apr-23 05:21 UTC.
Position N 09°34' W 079°57'.

Length 210.1 m; beam 30.2 m; draft 11.5 m.

Type: Ship (hazmat cat A). MMSI: 636017045.

Date/timePositionNaut miles runAvg speedWind from/ knotsBaromVisibWave heightAir tempDewpointWater temp
2017-Apr-18 21:39N 09°34' W 079°57'310.2
2017-Apr-18 21:22N 09°32' W 079°56'410.8
2017-Apr-18 21:00N 09°28' W 079°54'611.3
2017-Apr-18 20:30N 09°23' W 079°54'1 2.4
2017-Apr-18 20:00N 09°22' W 079°53'0 0.0
2017-Apr-18 19:30N 09°22' W 079°53'0 0.0
2017-Apr-18 19:00N 09°22' W 079°53'0 0.0
2017-Apr-18 18:30N 09°22' W 079°53'0 0.0
2017-Apr-18 18:00N 09°22' W 079°53'0 0.0
2017-Apr-18 17:30N 09°22' W 079°53'0 0.0
2017-Apr-18 17:00N 09°22' W 079°53'0 0.0
2017-Apr-18 16:30N 09°22' W 079°53'0 0.0
2017-Apr-18 16:00N 09°22' W 079°53'0 0.0
2017-Apr-18 15:27N 09°22' W 079°53'0 0.0
2017-Apr-18 15:00N 09°22' W 079°53'0 0.0
2017-Apr-18 14:30N 09°22' W 079°53'0 0.0
2017-Apr-18 13:30N 09°22' W 079°53'0 0.0
2017-Apr-18 13:00N 09°22' W 079°53'0 0.0
2017-Apr-18 12:30N 09°22' W 079°53'0 0.0
2017-Apr-18 12:00N 09°22' W 079°53'0 0.0
2017-Apr-18 11:30N 09°22' W 079°53'0 0.0
2017-Apr-18 11:00N 09°22' W 079°53'0 0.0
2017-Apr-18 10:30N 09°22' W 079°53'0 0.0
2017-Apr-18 09:57N 09°22' W 079°53'0 0.0
2017-Apr-18 09:30N 09°22' W 079°53'0 0.0
2017-Apr-18 09:00N 09°22' W 079°53'0 0.0
2017-Apr-18 08:30N 09°22' W 079°53'0 0.1
2017-Apr-18 08:00N 09°22' W 079°53'1 2.4
2017-Apr-18 07:30N 09°23' W 079°54'4 7.7
2017-Apr-18 07:00N 09°26' W 079°53'1 2.4
2017-Apr-18 06:30N 09°26' W 079°52'0 0.0
2017-Apr-18 05:58N 09°26' W 079°52'0 0.0
2017-Apr-18 05:22N 09°26' W 079°52'0 0.0
2017-Apr-18 04:58N 09°26' W 079°52'0 0.1
2017-Apr-18 04:28N 09°26' W 079°52'0 0.0
2017-Apr-18 03:59N 09°26' W 079°52'0 0.0
2017-Apr-18 03:28N 09°26' W 079°52'0 0.0
2017-Apr-18 02:58N 09°27' W 079°52'0 0.0
2017-Apr-18 02:28N 09°26' W 079°52'0 0.0
2017-Apr-18 01:58N 09°27' W 079°52'0 0.1
2017-Apr-18 01:28N 09°26' W 079°52'0 0.0
2017-Apr-18 00:58N 09°26' W 079°52'0 0.0
2017-Apr-18 00:28N 09°26' W 079°52'0 0.1
2017-Apr-17 23:58N 09°26' W 079°52'0 0.1
2017-Apr-17 23:25N 09°26' W 079°52'0 0.1
2017-Apr-17 22:58N 09°26' W 079°52'0 0.1
2017-Apr-17 22:28N 09°26' W 079°52'0 0.2
2017-Apr-17 21:55N 09°26' W 079°52'0 0.1
2017-Apr-17 21:22N 09°26' W 079°52'0 0.3
2017-Apr-17 20:58N 09°27' W 079°52'0 0.2
2017-Apr-17 20:28N 09°26' W 079°52'0 0.0
2017-Apr-17 19:58N 09°26' W 079°52'0 0.1
2017-Apr-17 19:19N 09°26' W 079°52'0 0.1
2017-Apr-17 18:58N 09°26' W 079°52'0 0.1
2017-Apr-17 18:28N 09°26' W 079°52'0 0.1
2017-Apr-17 17:58N 09°26' W 079°52'0 0.0
2017-Apr-17 17:28N 09°26' W 079°52'0 0.1
2017-Apr-17 16:58N 09°26' W 079°52'0 0.1
2017-Apr-17 16:28N 09°26' W 079°52'0 0.1
2017-Apr-17 15:59N 09°26' W 079°52'1 1.4
2017-Apr-17 15:30N 09°26' W 079°53'510.2
2017-Apr-17 15:00N 09°31' W 079°53'  
2017-Apr-13 07:33N 15°37' W 061°34'719.5
2017-Apr-13 07:13N 15°43' W 061°33'1519.3
2017-Apr-13 06:25N 15°58' W 061°32'717.8
2017-Apr-13 06:01N 16°06' W 061°31'5 9.3
2017-Apr-13 05:30N 16°10' W 061°33'4 7.7
2017-Apr-13 05:01N 16°14' W 061°33'0 0.0
2017-Apr-13 04:29N 16°14' W 061°33'0 0.0
2017-Apr-13 03:59N 16°14' W 061°33'0 0.0
2017-Apr-13 03:29N 16°14' W 061°33'0 0.0
2017-Apr-13 02:59N 16°14' W 061°33'0 0.0
2017-Apr-13 02:29N 16°14' W 061°33'0 0.0
2017-Apr-13 01:59N 16°14' W 061°33'0 0.0
2017-Apr-13 01:29N 16°14' W 061°33'0 0.0
2017-Apr-13 00:59N 16°14' W 061°33'0 0.0
2017-Apr-13 00:29N 16°14' W 061°33'0 0.0
2017-Apr-12 23:59N 16°14' W 061°33'0 0.0
2017-Apr-12 23:29N 16°14' W 061°33'0 0.0
2017-Apr-12 22:59N 16°14' W 061°33'0 0.0
2017-Apr-12 22:29N 16°14' W 061°33'0 0.0
2017-Apr-12 21:59N 16°14' W 061°33'0 0.0
2017-Apr-12 21:29N 16°14' W 061°33'0 0.0
2017-Apr-12 20:59N 16°14' W 061°33'0 0.0
2017-Apr-12 20:29N 16°14' W 061°33'0 0.0
2017-Apr-12 19:59N 16°14' W 061°33'0 0.0
2017-Apr-12 19:29N 16°14' W 061°33'0 0.0
2017-Apr-12 18:50N 16°14' W 061°33'0 0.0
2017-Apr-12 18:29N 16°14' W 061°33'0 0.0
2017-Apr-12 17:56N 16°14' W 061°33'0 0.0
2017-Apr-12 17:29N 16°14' W 061°33'0 0.0
2017-Apr-12 16:50N 16°14' W 061°33'0 0.0
2017-Apr-12 16:29N 16°14' W 061°33'0 0.0
2017-Apr-12 15:59N 16°14' W 061°33'0 0.0
2017-Apr-12 15:29N 16°14' W 061°33'0 0.0
2017-Apr-12 14:59N 16°14' W 061°33'0 0.0
2017-Apr-12 13:59N 16°14' W 061°33'0 0.0
2017-Apr-12 13:23N 16°14' W 061°33'0 0.0
2017-Apr-12 12:59N 16°14' W 061°33'0 0.0
2017-Apr-12 12:23N 16°14' W 061°33'0 0.0
2017-Apr-12 11:59N 16°14' W 061°33'  
Track history (hours):
 
Tides and Currents Weather Stations Pressure Air Temp Water Temp Dewpoint Dewpoint Depression Visibility Wind Speed Wind Dir Waves Ship Positions

CMA CGM La Boussole

Last reported at 2017-Apr-18 21:39 UTC. Time now 2017-Apr-23 05:21 UTC.
Position N 09°34' W 079°57'.

Length 210.1 m; beam 30.2 m; draft 11.5 m.

Type: Ship (hazmat cat A). MMSI: 636017045.

Date/timePositionNaut miles runAvg speedWind from/ knotsBaromVisibWave heightAir tempDewpointWater temp
2017-Apr-18 21:39N 09°34' W 079°57'310.2
2017-Apr-18 21:22N 09°32' W 079°56'410.8
2017-Apr-18 21:00N 09°28' W 079°54'611.3
2017-Apr-18 20:30N 09°23' W 079°54'1 2.4
2017-Apr-18 20:00N 09°22' W 079°53'0 0.0
2017-Apr-18 19:30N 09°22' W 079°53'0 0.0
2017-Apr-18 19:00N 09°22' W 079°53'0 0.0
2017-Apr-18 18:30N 09°22' W 079°53'0 0.0
2017-Apr-18 18:00N 09°22' W 079°53'0 0.0
2017-Apr-18 17:30N 09°22' W 079°53'0 0.0
2017-Apr-18 17:00N 09°22' W 079°53'0 0.0
2017-Apr-18 16:30N 09°22' W 079°53'0 0.0
2017-Apr-18 16:00N 09°22' W 079°53'0 0.0
2017-Apr-18 15:27N 09°22' W 079°53'0 0.0
2017-Apr-18 15:00N 09°22' W 079°53'0 0.0
2017-Apr-18 14:30N 09°22' W 079°53'0 0.0
2017-Apr-18 13:30N 09°22' W 079°53'0 0.0
2017-Apr-18 13:00N 09°22' W 079°53'0 0.0
2017-Apr-18 12:30N 09°22' W 079°53'0 0.0
2017-Apr-18 12:00N 09°22' W 079°53'0 0.0
2017-Apr-18 11:30N 09°22' W 079°53'0 0.0
2017-Apr-18 11:00N 09°22' W 079°53'0 0.0
2017-Apr-18 10:30N 09°22' W 079°53'0 0.0
2017-Apr-18 09:57N 09°22' W 079°53'0 0.0
2017-Apr-18 09:30N 09°22' W 079°53'0 0.0
2017-Apr-18 09:00N 09°22' W 079°53'0 0.0
2017-Apr-18 08:30N 09°22' W 079°53'0 0.1
2017-Apr-18 08:00N 09°22' W 079°53'1 2.4
2017-Apr-18 07:30N 09°23' W 079°54'4 7.7
2017-Apr-18 07:00N 09°26' W 079°53'1 2.4
2017-Apr-18 06:30N 09°26' W 079°52'0 0.0
2017-Apr-18 05:58N 09°26' W 079°52'0 0.0
2017-Apr-18 05:22N 09°26' W 079°52'0 0.0
2017-Apr-18 04:58N 09°26' W 079°52'0 0.1
2017-Apr-18 04:28N 09°26' W 079°52'0 0.0
2017-Apr-18 03:59N 09°26' W 079°52'0 0.0
2017-Apr-18 03:28N 09°26' W 079°52'0 0.0
2017-Apr-18 02:58N 09°27' W 079°52'0 0.0
2017-Apr-18 02:28N 09°26' W 079°52'0 0.0
2017-Apr-18 01:58N 09°27' W 079°52'0 0.1
2017-Apr-18 01:28N 09°26' W 079°52'0 0.0
2017-Apr-18 00:58N 09°26' W 079°52'0 0.0
2017-Apr-18 00:28N 09°26' W 079°52'0 0.1
2017-Apr-17 23:58N 09°26' W 079°52'0 0.1
2017-Apr-17 23:25N 09°26' W 079°52'0 0.1
2017-Apr-17 22:58N 09°26' W 079°52'0 0.1
2017-Apr-17 22:28N 09°26' W 079°52'0 0.2
2017-Apr-17 21:55N 09°26' W 079°52'0 0.1
2017-Apr-17 21:22N 09°26' W 079°52'0 0.3
2017-Apr-17 20:58N 09°27' W 079°52'0 0.2
2017-Apr-17 20:28N 09°26' W 079°52'0 0.0
2017-Apr-17 19:58N 09°26' W 079°52'0 0.1
2017-Apr-17 19:19N 09°26' W 079°52'0 0.1
2017-Apr-17 18:58N 09°26' W 079°52'0 0.1
2017-Apr-17 18:28N 09°26' W 079°52'0 0.1
2017-Apr-17 17:58N 09°26' W 079°52'0 0.0
2017-Apr-17 17:28N 09°26' W 079°52'0 0.1
2017-Apr-17 16:58N 09°26' W 079°52'0 0.1
2017-Apr-17 16:28N 09°26' W 079°52'0 0.1
2017-Apr-17 15:59N 09°26' W 079°52'1 1.4
2017-Apr-17 15:30N 09°26' W 079°53'510.2
2017-Apr-17 15:00N 09°31' W 079°53'  
2017-Apr-13 07:33N 15°37' W 061°34'719.5
2017-Apr-13 07:13N 15°43' W 061°33'1519.3
2017-Apr-13 06:25N 15°58' W 061°32'717.8
2017-Apr-13 06:01N 16°06' W 061°31'5 9.3
2017-Apr-13 05:30N 16°10' W 061°33'4 7.7
2017-Apr-13 05:01N 16°14' W 061°33'0 0.0
2017-Apr-13 04:29N 16°14' W 061°33'0 0.0
2017-Apr-13 03:59N 16°14' W 061°33'0 0.0
2017-Apr-13 03:29N 16°14' W 061°33'0 0.0
2017-Apr-13 02:59N 16°14' W 061°33'0 0.0
2017-Apr-13 02:29N 16°14' W 061°33'0 0.0
2017-Apr-13 01:59N 16°14' W 061°33'0 0.0
2017-Apr-13 01:29N 16°14' W 061°33'0 0.0
2017-Apr-13 00:59N 16°14' W 061°33'0 0.0
2017-Apr-13 00:29N 16°14' W 061°33'0 0.0
2017-Apr-12 23:59N 16°14' W 061°33'0 0.0
2017-Apr-12 23:29N 16°14' W 061°33'0 0.0
2017-Apr-12 22:59N 16°14' W 061°33'0 0.0
2017-Apr-12 22:29N 16°14' W 061°33'0 0.0
2017-Apr-12 21:59N 16°14' W 061°33'0 0.0
2017-Apr-12 21:29N 16°14' W 061°33'0 0.0
2017-Apr-12 20:59N 16°14' W 061°33'0 0.0
2017-Apr-12 20:29N 16°14' W 061°33'0 0.0
2017-Apr-12 19:59N 16°14' W 061°33'0 0.0
2017-Apr-12 19:29N 16°14' W 061°33'0 0.0
2017-Apr-12 18:50N 16°14' W 061°33'0 0.0
2017-Apr-12 18:29N 16°14' W 061°33'0 0.0
2017-Apr-12 17:56N 16°14' W 061°33'0 0.0
2017-Apr-12 17:29N 16°14' W 061°33'0 0.0
2017-Apr-12 16:50N 16°14' W 061°33'0 0.0
2017-Apr-12 16:29N 16°14' W 061°33'0 0.0
2017-Apr-12 15:59N 16°14' W 061°33'0 0.0
2017-Apr-12 15:29N 16°14' W 061°33'0 0.0
2017-Apr-12 14:59N 16°14' W 061°33'0 0.0
2017-Apr-12 13:59N 16°14' W 061°33'0 0.0
2017-Apr-12 13:23N 16°14' W 061°33'0 0.0
2017-Apr-12 12:59N 16°14' W 061°33'0 0.0
2017-Apr-12 12:23N 16°14' W 061°33'0 0.0
2017-Apr-12 11:59N 16°14' W 061°33'  

Dump ship's entire track history